Terminal Aerodrome Forecast
Issued by NWS

Home | Current Version | Previous Version | Text Only | Print | Product List | Glossary On
Versions: 1 2 3 4 5 6 7 8 9 10 11 12 13 14 15 16 17 18 19 20 21
528
FTUS43 KMQT 211740 CCA
TAFSAW
TAF COR
KSAW 211740Z 2118/2218 03005KT P6SM SCT035
     FM220100 12003KT P6SM SCT015
     FM220400 17005KT 4SM BR BKN008
     FM220500 18006KT 4SM BR BKN003
     FM220600 18006KT 3SM BR VCSH BKN003
     FM221000 20008KT 1SM BR BKN003
     FM221200 20008KT 1SM BR BKN003 WS020/23035KT
     FM221400 20008KT 4SM BR SCT015
     FM221600 21009KT P6SM SCT040=

USA.gov is the U.S. government's official web portal to all federal, state and local government web resources and services.